sensor_id;sensor_type;location;lat;lon;timestamp;pressure;altitude;pressure_sealevel;temperature;humidity
53758;BME280;39674;59.860;30.672;2023-03-22T00:00:15;100638.19;;;-0.83;100.00
53758;BME280;39674;59.860;30.672;2023-03-22T00:03:05;100637.34;;;-0.85;100.00
53758;BME280;39674;59.860;30.672;2023-03-22T00:06:56;100637.34;;;-0.85;100.00
53758;BME280;39674;59.860;30.672;2023-03-22T00:10:26;100627.81;;;-0.83;100.00
53758;BME280;39674;59.860;30.672;2023-03-22T00:13:33;100639.06;;;-0.81;100.00
53758;BME280;39674;59.860;30.672;2023-03-22T00:23:00;100626.97;;;-0.85;100.00
53758;BME280;39674;59.860;30.672;2023-03-22T00:26:17;100630.47;;;-0.86;100.00
53758;BME280;39674;59.860;30.672;2023-03-22T00:29:10;100640.84;;;-0.90;100.00
53758;BME280;39674;59.860;30.672;2023-03-22T00:32:36;100643.44;;;-0.90;100.00
53758;BME280;39674;59.860;30.672;2023-03-22T00:35:14;100639.09;;;-0.87;100.00
53758;BME280;39674;59.860;30.672;2023-03-22T00:48:46;100627.84;;;-0.87;100.00
53758;BME280;39674;59.860;30.672;2023-03-22T00:52:02;100633.03;;;-0.86;100.00
53758;BME280;39674;59.860;30.672;2023-03-22T01:20:30;100651.25;;;-0.98;100.00
53758;BME280;39674;59.860;30.672;2023-03-22T01:26:23;100634.84;;;-0.95;100.00
53758;BME280;39674;59.860;30.672;2023-03-22T01:29:16;100638.28;;;-1.00;100.00
53758;BME280;39674;59.860;30.672;2023-03-22T01:32:22;100647.81;;;-1.00;100.00
53758;BME280;39674;59.860;30.672;2023-03-22T01:37:29;100642.63;;;-1.00;100.00
53758;BME280;39674;59.860;30.672;2023-03-22T01:39:33;100635.75;;;-1.07;100.00
53758;BME280;39674;59.860;30.672;2023-03-22T01:41:38;100640.94;;;-1.07;100.00
53758;BME280;39674;59.860;30.672;2023-03-22T01:47:40;100639.19;;;-1.05;100.00
53758;BME280;39674;59.860;30.672;2023-03-22T01:51:06;100632.31;;;-1.16;100.00
53758;BME280;39674;59.860;30.672;2023-03-22T01:54:42;100637.53;;;-1.19;100.00
53758;BME280;39674;59.860;30.672;2023-03-22T01:57:53;100638.41;;;-1.26;100.00
53758;BME280;39674;59.860;30.672;2023-03-22T02:01:05;100643.63;;;-1.27;100.00
53758;BME280;39674;59.860;30.672;2023-03-22T02:03:58;100654.81;;;-1.18;100.00
53758;BME280;39674;59.860;30.672;2023-03-22T02:06:57;100649.63;;;-1.24;100.00
53758;BME280;39674;59.860;30.672;2023-03-22T02:09:35;100648.75;;;-1.23;100.00
53758;BME280;39674;59.860;30.672;2023-03-22T02:12:34;100650.47;;;-1.20;100.00
53758;BME280;39674;59.860;30.672;2023-03-22T02:15:39;100634.91;;;-1.17;100.00
53758;BME280;39674;59.860;30.672;2023-03-22T02:22:11;100641.78;;;-1.08;100.00
53758;BME280;39674;59.860;30.672;2023-03-22T02:29:45;100638.34;;;-1.09;100.00
53758;BME280;39674;59.860;30.672;2023-03-22T02:53:08;100643.50;;;-1.06;100.00
53758;BME280;39674;59.860;30.672;2023-03-22T02:56:37;100643.53;;;-1.17;100.00
53758;BME280;39674;59.860;30.672;2023-03-22T02:59:58;100643.56;;;-1.18;100.00
53758;BME280;39674;59.860;30.672;2023-03-22T03:06:57;100649.63;;;-1.18;100.00
53758;BME280;39674;59.860;30.672;2023-03-22T03:13:35;100648.75;;;-1.20;100.00
53758;BME280;39674;59.860;30.672;2023-03-22T03:16:46;100646.19;;;-1.26;100.00
53758;BME280;39674;59.860;30.672;2023-03-22T03:20:41;100640.13;;;-1.23;100.00
53758;BME280;39674;59.860;30.672;2023-03-22T03:23:04;100647.03;;;-1.21;100.00
53758;BME280;39674;59.860;30.672;2023-03-22T03:26:34;100647.88;;;-1.17;100.00
53758;BME280;39674;59.860;30.672;2023-03-22T03:32:31;100647.91;;;-1.19;100.00
53758;BME280;39674;59.860;30.672;2023-03-22T03:38:06;100656.53;;;-1.20;100.00
53758;BME280;39674;59.860;30.672;2023-03-22T03:41:16;100658.25;;;-1.22;100.00
53758;BME280;39674;59.860;30.672;2023-03-22T03:44:09;100661.72;;;-1.20;100.00
53758;BME280;39674;59.860;30.672;2023-03-22T03:46:53;100660.00;;;-1.24;100.00
53758;BME280;39674;59.860;30.672;2023-03-22T03:49:46;100658.28;;;-1.28;100.00
53758;BME280;39674;59.860;30.672;2023-03-22T03:52:40;100654.81;;;-1.30;100.00
53758;BME280;39674;59.860;30.672;2023-03-22T03:55:28;100655.69;;;-1.28;100.00
53758;BME280;39674;59.860;30.672;2023-03-22T03:58:06;100661.75;;;-1.29;100.00
53758;BME280;39674;59.860;30.672;2023-03-22T04:02:16;100660.00;;;-1.27;100.00
53758;BME280;39674;59.860;30.672;2023-03-22T04:04:22;100663.47;;;-1.28;100.00
53758;BME280;39674;59.860;30.672;2023-03-22T04:07:32;100660.03;;;-1.28;100.00
53758;BME280;39674;59.860;30.672;2023-03-22T04:10:23;100655.72;;;-1.30;100.00
53758;BME280;39674;59.860;30.672;2023-03-22T04:13:31;100651.41;;;-1.32;100.00
53758;BME280;39674;59.860;30.672;2023-03-22T04:16:23;100653.97;;;-1.34;100.00
53758;BME280;39674;59.860;30.672;2023-03-22T04:19:18;100648.78;;;-1.34;100.00
53758;BME280;39674;59.860;30.672;2023-03-22T04:21:49;100656.56;;;-1.26;100.00
53758;BME280;39674;59.860;30.672;2023-03-22T04:25:04;100661.75;;;-1.29;100.00
53758;BME280;39674;59.860;30.672;2023-03-22T04:28:11;100660.00;;;-1.27;100.00
53758;BME280;39674;59.860;30.672;2023-03-22T04:35:01;100664.34;;;-1.40;100.00
53758;BME280;39674;59.860;30.672;2023-03-22T04:38:31;100663.53;;;-1.42;100.00
53758;BME280;39674;59.860;30.672;2023-03-22T04:44:45;100672.19;;;-1.51;100.00
53758;BME280;39674;59.860;30.672;2023-03-22T04:47:41;100673.03;;;-1.49;100.00
53758;BME280;39674;59.860;30.672;2023-03-22T04:50:28;100672.16;;;-1.48;100.00
53758;BME280;39674;59.860;30.672;2023-03-22T04:53:15;100672.16;;;-1.41;100.00
53758;BME280;39674;59.860;30.672;2023-03-22T04:56:27;100656.59;;;-1.38;100.00
53758;BME280;39674;59.860;30.672;2023-03-22T04:59:10;100666.09;;;-1.40;100.00
53758;BME280;39674;59.860;30.672;2023-03-22T05:01:51;100673.00;;;-1.42;100.00
53758;BME280;39674;59.860;30.672;2023-03-22T05:04:30;100670.44;;;-1.49;100.00
53758;BME280;39674;59.860;30.672;2023-03-22T05:07:36;100673.88;;;-1.43;100.00
53758;BME280;39674;59.860;30.672;2023-03-22T05:10:35;100679.06;;;-1.37;100.00
53758;BME280;39674;59.860;30.672;2023-03-22T05:13:53;100679.03;;;-1.43;100.00
53758;BME280;39674;59.860;30.672;2023-03-22T05:16:50;100680.78;;;-1.42;100.00
53758;BME280;39674;59.860;30.672;2023-03-22T05:30:29;100677.38;;;-1.60;100.00
53758;BME280;39674;59.860;30.672;2023-03-22T05:34:11;100675.66;;;-1.61;100.00
53758;BME280;39674;59.860;30.672;2023-03-22T05:42:47;100679.97;;;-1.60;100.00
53758;BME280;39674;59.860;30.672;2023-03-22T05:44:58;100680.84;;;-1.70;100.00
53758;BME280;39674;59.860;30.672;2023-03-22T06:04:13;100677.41;;;-1.72;100.00
53758;BME280;39674;59.860;30.672;2023-03-22T06:08:29;100679.09;;;-1.62;100.00
53758;BME280;39674;59.860;30.672;2023-03-22T06:12:08;100675.69;;;-1.70;100.00
53758;BME280;39674;59.860;30.672;2023-03-22T06:32:41;100659.22;;;-1.63;100.00
53758;BME280;39674;59.860;30.672;2023-03-22T06:35:28;100670.47;;;-1.61;100.00
53758;BME280;39674;59.860;30.672;2023-03-22T06:38:26;100672.19;;;-1.51;100.00
53758;BME280;39674;59.860;30.672;2023-03-22T06:41:09;100670.47;;;-1.52;100.00
53758;BME280;39674;59.860;30.672;2023-03-22T06:47:34;100669.53;;;-1.34;100.00
53758;BME280;39674;59.860;30.672;2023-03-22T06:51:13;100670.34;;;-1.21;100.00
53758;BME280;39674;59.860;30.672;2023-03-22T06:54:06;100656.50;;;-1.14;100.00
53758;BME280;39674;59.860;30.672;2023-03-22T06:57:25;100668.59;;;-1.13;100.00
53758;BME280;39674;59.860;30.672;2023-03-22T07:02:47;100665.19;;;-1.21;100.00
53758;BME280;39674;59.860;30.672;2023-03-22T07:05:19;100648.78;;;-1.24;100.00
53758;BME280;39674;59.860;30.672;2023-03-22T07:12:23;100656.44;;;-1.01;100.00
53758;BME280;39674;59.860;30.672;2023-03-22T07:15:34;100658.22;;;-1.06;100.00
53758;BME280;39674;59.860;30.672;2023-03-22T07:20:13;100663.34;;;-0.97;100.00
53758;BME280;39674;59.860;30.672;2023-03-22T07:24:07;100666.78;;;-0.95;100.00
53758;BME280;39674;59.860;30.672;2023-03-22T07:37:14;100664.97;;;-0.77;100.00
53758;BME280;39674;59.860;30.672;2023-03-22T07:46:59;100664.97;;;-0.77;100.00
53758;BME280;39674;59.860;30.672;2023-03-22T07:57:37;100658.84;;;-0.64;100.00
53758;BME280;39674;59.860;30.672;2023-03-22T08:00:46;100654.50;;;-0.57;100.00
53758;BME280;39674;59.860;30.672;2023-03-22T08:58:39;100589.53;;;0.44;100.00
53758;BME280;39674;59.860;30.672;2023-03-22T09:02:03;100593.78;;;0.50;100.00
53758;BME280;39674;59.860;30.672;2023-03-22T09:05:42;100592.84;;;0.57;100.00
53758;BME280;39674;59.860;30.672;2023-03-22T09:13:47;100585.75;;;0.71;100.00
53758;BME280;39674;59.860;30.672;2023-03-22T09:40:49;100585.31;;;1.02;100.00
53758;BME280;39674;59.860;30.672;2023-03-22T09:48:06;100589.56;;;1.08;100.00
53758;BME280;39674;59.860;30.672;2023-03-22T09:51:12;100581.69;;;1.12;100.00
53758;BME280;39674;59.860;30.672;2023-03-22T09:54:49;100580.94;;;1.06;100.00
53758;BME280;39674;59.860;30.672;2023-03-22T09:57:45;100580.03;;;1.08;100.00
53758;BME280;39674;59.860;30.672;2023-03-22T10:00:36;100588.72;;;1.07;100.00
53758;BME280;39674;59.860;30.672;2023-03-22T10:03:20;100574.78;;;1.11;100.00
53758;BME280;39674;59.860;30.672;2023-03-22T10:09:40;100578.28;;;1.10;100.00
53758;BME280;39674;59.860;30.672;2023-03-22T10:12:49;100580.22;;;0.96;100.00
53758;BME280;39674;59.860;30.672;2023-03-22T10:15:38;100571.63;;;0.91;100.00
53758;BME280;39674;59.860;30.672;2023-03-22T10:18:18;100576.69;;;1.00;100.00
53758;BME280;39674;59.860;30.672;2023-03-22T10:20:55;100575.03;;;0.93;100.00
53758;BME280;39674;59.860;30.672;2023-03-22T10:24:08;100578.50;;;0.92;100.00
53758;BME280;39674;59.860;30.672;2023-03-22T10:26:53;100589.00;;;0.86;100.00
53758;BME280;39674;59.860;30.672;2023-03-22T10:33:00;100576.13;;;0.78;100.00
53758;BME280;39674;59.860;30.672;2023-03-22T10:36:25;100574.44;;;0.74;100.00
53758;BME280;39674;59.860;30.672;2023-03-22T10:38:47;100577.88;;;0.77;100.00
53758;BME280;39674;59.860;30.672;2023-03-22T10:41:47;100574.34;;;0.82;100.00
53758;BME280;39674;59.860;30.672;2023-03-22T10:45:10;100576.91;;;0.85;100.00
53758;BME280;39674;59.860;30.672;2023-03-22T10:48:22;100561.34;;;0.82;100.00
53758;BME280;39674;59.860;30.672;2023-03-22T10:51:38;100553.56;;;0.80;100.00
53758;BME280;39674;59.860;30.672;2023-03-22T10:54:30;100543.09;;;0.85;100.00
53758;BME280;39674;59.860;30.672;2023-03-22T10:57:26;100542.94;;;0.95;100.00
53758;BME280;39674;59.860;30.672;2023-03-22T11:00:25;100537.72;;;0.95;100.00
53758;BME280;39674;59.860;30.672;2023-03-22T11:03:35;100538.41;;;1.08;100.00
53758;BME280;39674;59.860;30.672;2023-03-22T11:06:52;100532.19;;;1.19;100.00
53758;BME280;39674;59.860;30.672;2023-03-22T11:09:53;100529.53;;;1.22;100.00
53758;BME280;39674;59.860;30.672;2023-03-22T11:13:30;100521.66;;;1.25;100.00
53758;BME280;39674;59.860;30.672;2023-03-22T13:48:39;100275.84;;;2.23;98.59
53758;BME280;39674;59.860;30.672;2023-03-22T14:02:54;100251.88;;;2.08;99.75
53758;BME280;39674;59.860;30.672;2023-03-22T15:00:52;100165.88;;;1.36;100.00
53758;BME280;39674;59.860;30.672;2023-03-22T15:08:30;100149.56;;;1.28;100.00
53758;BME280;39674;59.860;30.672;2023-03-22T15:15:21;100137.63;;;1.18;100.00
53758;BME280;39674;59.860;30.672;2023-03-22T16:41:27;100033.84;;;1.07;100.00
53758;BME280;39674;59.860;30.672;2023-03-22T16:45:08;100026.06;;;1.07;100.00
53758;BME280;39674;59.860;30.672;2023-03-22T16:49:07;100025.97;;;1.10;100.00
53758;BME280;39674;59.860;30.672;2023-03-22T16:52:09;100021.69;;;1.07;100.00
53758;BME280;39674;59.860;30.672;2023-03-22T17:21:03;99973.09;;;1.09;100.00
53758;BME280;39674;59.860;30.672;2023-03-22T17:23:33;99966.97;;;1.12;100.00
53758;BME280;39674;59.860;30.672;2023-03-22T17:26:03;99968.63;;;1.15;100.00
53758;BME280;39674;59.860;30.672;2023-03-22T17:28:36;99960.00;;;1.12;100.00
53758;BME280;39674;59.860;30.672;2023-03-22T17:31:17;99965.25;;;1.11;100.00
53758;BME280;39674;59.860;30.672;2023-03-22T17:33:47;99960.91;;;1.11;100.00
53758;BME280;39674;59.860;30.672;2023-03-22T17:36:21;99957.25;;;1.19;100.00
53758;BME280;39674;59.860;30.672;2023-03-22T17:39:01;99954.69;;;1.17;100.00
53758;BME280;39674;59.860;30.672;2023-03-22T17:41:33;99953.88;;;1.17;100.00
53758;BME280;39674;59.860;30.672;2023-03-22T17:44:03;99955.47;;;1.21;100.00
53758;BME280;39674;59.860;30.672;2023-03-22T17:47:16;99943.94;;;1.31;100.00
53758;BME280;39674;59.860;30.672;2023-03-22T17:49:46;99946.47;;;1.34;100.00
53758;BME280;39674;59.860;30.672;2023-03-22T17:52:34;99933.34;;;1.39;100.00
53758;BME280;39674;59.860;30.672;2023-03-22T17:55:10;99935.91;;;1.40;100.00
53758;BME280;39674;59.860;30.672;2023-03-22T17:58:59;99931.47;;;1.44;100.00
53758;BME280;39674;59.860;30.672;2023-03-22T18:01:24;99935.69;;;1.50;100.00
53758;BME280;39674;59.860;30.672;2023-03-22T18:03:55;99927.88;;;1.48;100.00
53758;BME280;39674;59.860;30.672;2023-03-22T18:06:36;99937.34;;;1.51;100.00
53758;BME280;39674;59.860;30.672;2023-03-22T18:09:34;99937.19;;;1.57;100.00
53758;BME280;39674;59.860;30.672;2023-03-22T18:12:15;99932.00;;;1.57;100.00
53758;BME280;39674;59.860;30.672;2023-03-22T18:14:44;99928.44;;;1.61;100.00
53758;BME280;39674;59.860;30.672;2023-03-22T18:17:18;99932.00;;;1.57;100.00
53758;BME280;39674;59.860;30.672;2023-03-22T18:19:51;99924.84;;;1.65;100.00
53758;BME280;39674;59.860;30.672;2023-03-22T18:22:33;99924.75;;;1.68;100.00
53758;BME280;39674;59.860;30.672;2023-03-22T18:25:14;99923.94;;;1.66;100.00
53758;BME280;39674;59.860;30.672;2023-03-22T18:28:02;99922.09;;;1.70;100.00
53758;BME280;39674;59.860;30.672;2023-03-22T18:30:49;99912.63;;;1.67;100.00
53758;BME280;39674;59.860;30.672;2023-03-22T18:33:18;99919.38;;;1.74;100.00
53758;BME280;39674;59.860;30.672;2023-03-22T18:39:06;99902.59;;;1.85;100.00
53758;BME280;39674;59.860;30.672;2023-03-22T18:42:48;99891.34;;;1.84;100.00
53758;BME280;39674;59.860;30.672;2023-03-22T19:06:43;99867.56;;;2.25;100.00
53758;BME280;39674;59.860;30.672;2023-03-22T19:09:24;99859.59;;;2.30;100.00
53758;BME280;39674;59.860;30.672;2023-03-22T19:12:08;99861.41;;;2.28;100.00
53758;BME280;39674;59.860;30.672;2023-03-22T19:14:45;99868.13;;;2.35;100.00
53758;BME280;39674;59.860;30.672;2023-03-22T19:17:22;99861.78;;;2.44;100.00
53758;BME280;39674;59.860;30.672;2023-03-22T19:20:37;99861.78;;;2.44;100.00
53758;BME280;39674;59.860;30.672;2023-03-22T19:23:22;99863.47;;;2.45;100.00
53758;BME280;39674;59.860;30.672;2023-03-22T19:26:45;99847.66;;;2.51;100.00
53758;BME280;39674;59.860;30.672;2023-03-22T19:33:57;99841.53;;;2.52;100.00
53758;BME280;39674;59.860;30.672;2023-03-22T19:39:13;99847.66;;;2.51;100.00
53758;BME280;39674;59.860;30.672;2023-03-22T19:42:01;99832.00;;;2.51;100.00
53758;BME280;39674;59.860;30.672;2023-03-22T19:48:21;99827.47;;;2.58;100.00
53758;BME280;39674;59.860;30.672;2023-03-22T19:51:52;99829.94;;;2.61;100.00
53758;BME280;39674;59.860;30.672;2023-03-22T19:55:27;99823.78;;;2.63;100.00
53758;BME280;39674;59.860;30.672;2023-03-22T20:01:23;99818.50;;;2.65;100.00
53758;BME280;39674;59.860;30.672;2023-03-22T20:04:23;99821.88;;;2.68;100.00
53758;BME280;39674;59.860;30.672;2023-03-22T20:06:59;99815.88;;;2.66;100.00
53758;BME280;39674;59.860;30.672;2023-03-22T20:09:44;99810.44;;;2.72;100.00
53758;BME280;39674;59.860;30.672;2023-03-22T20:15:55;99819.13;;;2.73;100.00
53758;BME280;39674;59.860;30.672;2023-03-22T20:19:18;99821.88;;;2.68;100.00
53758;BME280;39674;59.860;30.672;2023-03-22T20:42:52;99793.41;;;2.87;100.00
53758;BME280;39674;59.860;30.672;2023-03-22T21:36:25;99724.25;;;3.25;100.00
53758;BME280;39674;59.860;30.672;2023-03-22T21:56:01;99723.88;;;3.35;100.00
53758;BME280;39674;59.860;30.672;2023-03-22T21:59:13;99717.69;;;3.38;100.00
53758;BME280;39674;59.860;30.672;2023-03-22T22:08:41;99706.72;;;3.52;100.00
53758;BME280;39674;59.860;30.672;2023-03-22T22:28:32;99688.88;;;3.63;100.00
53758;BME280;39674;59.860;30.672;2023-03-22T22:33:55;99683.28;;;3.73;100.00
53758;BME280;39674;59.860;30.672;2023-03-22T22:36:56;99671.16;;;3.72;100.00
53758;BME280;39674;59.860;30.672;2023-03-22T22:40:21;99676.38;;;3.72;100.00
53758;BME280;39674;59.860;30.672;2023-03-22T22:44:11;99662.13;;;3.79;100.00
53758;BME280;39674;59.860;30.672;2023-03-22T22:50:42;99655.00;;;3.84;100.00
53758;BME280;39674;59.860;30.672;2023-03-22T22:53:16;99650.50;;;3.88;100.00
53758;BME280;39674;59.860;30.672;2023-03-22T22:55:54;99649.50;;;3.90;100.00
53758;BME280;39674;59.860;30.672;2023-03-22T22:59:44;99639.06;;;3.90;100.00
53758;BME280;39674;59.860;30.672;2023-03-22T23:02:24;99632.00;;;3.92;100.00
53758;BME280;39674;59.860;30.672;2023-03-22T23:05:57;99633.69;;;3.93;100.00
53758;BME280;39674;59.860;30.672;2023-03-22T23:08:32;99623.84;;;4.00;100.00
53758;BME280;39674;59.860;30.672;2023-03-22T23:18:05;99623.91;;;4.19;100.00
53758;BME280;39674;59.860;30.672;2023-03-22T23:21:08;99630.72;;;4.23;100.00
